Praderas del Sur, Puerto Rico
Current Conditions -  °F | °C
As of 3:50 AM on Monday 24 Nov 2014 (Local Time) from TJPS Reporting Station
Clear Clear  
Wind Chill: 75°   Ceiling: Unl
Heat Index: 75°   Visibility: 8mi
Dew Point: 70°   Wind: 0mph
Humidity: 83%   Direction: NA
Pressure: 29.94"   Gusts: NA
Location:  17.9676°N, 66.4046°W
Report Text: TJPS 240750Z 00000KT 8SM SKC 24/21 A2994
Loading
Personal Weather Stations






























Interactive Weather Map New forecast layout! Learn more

10-Day Weather Forecast

Advertisements
Track Severe Weather on mobile